createdAt,value
2022-11-14T00:00:52.759Z,61.0
2022-11-14T00:03:23.483Z,61.0
2022-11-14T00:06:04.071Z,61.0
2022-11-14T00:08:34.675Z,61.0
2022-11-14T00:11:05.292Z,61.0
2022-11-14T00:13:35.909Z,61.0
2022-11-14T00:18:46.669Z,62.0
2022-11-14T00:21:17.269Z,62.0
2022-11-14T00:23:47.844Z,62.0
2022-11-14T00:26:18.452Z,62.0
2022-11-14T00:28:49.038Z,62.0
2022-11-14T00:31:19.631Z,62.0
2022-11-14T00:34:00.207Z,62.0
2022-11-14T00:36:30.800Z,62.0
2022-11-14T00:39:01.403Z,62.0
2022-11-14T00:41:32.001Z,62.0
2022-11-14T00:44:02.592Z,62.0
2022-11-14T00:46:33.182Z,62.0
2022-11-14T00:49:13.787Z,62.0
2022-11-14T00:51:44.389Z,61.0
2022-11-14T00:54:14.983Z,61.0
2022-11-14T00:59:25.741Z,61.0
2022-11-14T01:02:08.308Z,61.0
2022-11-14T01:04:28.923Z,61.0
2022-11-14T01:06:59.522Z,61.0
2022-11-14T01:09:30.328Z,61.0
2022-11-14T01:12:00.938Z,61.0
2022-11-14T01:14:31.549Z,61.0
2022-11-14T01:17:12.174Z,61.0
2022-11-14T01:19:42.782Z,60.0
2022-11-14T01:22:16.575Z,61.0
2022-11-14T01:24:47.146Z,61.0
2022-11-14T01:27:17.773Z,61.0
2022-11-14T01:29:48.377Z,61.0
2022-11-14T01:32:28.951Z,61.0
2022-11-14T01:34:59.554Z,61.0
2022-11-14T01:40:00.288Z,61.0
2022-11-14T01:42:37.059Z,61.0
2022-11-14T01:45:07.669Z,61.0
2022-11-14T01:47:48.304Z,61.0
2022-11-14T01:50:18.906Z,61.0
2022-11-14T01:52:49.525Z,61.0
2022-11-14T01:55:20.120Z,61.0
2022-11-14T01:57:50.702Z,61.0
2022-11-14T02:00:31.306Z,61.0
2022-11-14T02:03:01.921Z,61.0
2022-11-14T02:05:32.497Z,61.0
2022-11-14T02:08:03.106Z,61.0
2022-11-14T02:10:33.707Z,61.0
2022-11-14T02:13:04.301Z,61.0
2022-11-14T02:15:44.927Z,61.0
2022-11-14T02:20:45.651Z,61.0
2022-11-14T02:23:16.261Z,61.0
2022-11-14T02:25:46.844Z,61.0
2022-11-14T02:28:17.445Z,61.0
2022-11-14T02:30:58.439Z,61.0
2022-11-14T02:33:29.002Z,61.0
2022-11-14T02:35:59.624Z,61.0
2022-11-14T02:38:30.584Z,61.0
2022-11-14T02:41:01.371Z,61.0
2022-11-14T02:43:31.953Z,61.0
2022-11-14T02:46:16.022Z,61.0
2022-11-14T02:48:46.600Z,61.0
2022-11-14T02:51:17.202Z,60.0
2022-11-14T02:53:47.799Z,60.0
2022-11-14T02:56:18.384Z,61.0
2022-11-14T03:01:31.447Z,61.0
2022-11-14T03:04:02.189Z,61.0
2022-11-14T03:06:32.853Z,61.0
2022-11-14T03:09:03.531Z,61.0
2022-11-14T03:11:34.134Z,61.0
2022-11-14T03:14:14.777Z,61.0
2022-11-14T03:16:45.394Z,61.0
2022-11-14T03:19:15.960Z,61.0
2022-11-14T03:21:46.560Z,61.0
2022-11-14T03:24:17.139Z,61.0
2022-11-14T03:26:47.740Z,61.0
2022-11-14T03:29:28.341Z,61.0
2022-11-14T03:31:58.974Z,61.0
2022-11-14T03:34:29.568Z,61.0
2022-11-14T03:37:00.204Z,61.0
2022-11-14T03:42:00.965Z,61.0
2022-11-14T03:44:41.576Z,61.0
2022-11-14T03:47:12.212Z,61.0
2022-11-14T03:49:42.819Z,61.0
2022-11-14T03:52:13.425Z,61.0
2022-11-14T03:54:44.031Z,61.0
2022-11-14T03:57:14.630Z,61.0
2022-11-14T03:59:55.235Z,61.0
2022-11-14T04:02:25.852Z,61.0
2022-11-14T04:04:56.476Z,61.0
2022-11-14T04:07:27.214Z,61.0
2022-11-14T04:09:57.832Z,61.0
2022-11-14T04:12:28.429Z,61.0
2022-11-14T04:15:09.056Z,61.0
2022-11-14T04:17:40.054Z,61.0
2022-11-14T04:22:40.872Z,61.0
2022-11-14T04:25:11.513Z,61.0
2022-11-14T04:27:52.138Z,61.0
2022-11-14T04:30:22.740Z,61.0
2022-11-14T04:32:55.382Z,61.0
2022-11-14T04:37:56.141Z,61.0
2022-11-14T04:40:26.761Z,61.0
2022-11-14T04:43:07.367Z,61.0
2022-11-14T04:45:38.107Z,61.0
2022-11-14T04:48:08.683Z,61.0
2022-11-14T04:50:39.289Z,61.0
2022-11-14T04:53:09.894Z,61.0
2022-11-14T04:55:40.455Z,61.0
2022-11-14T04:58:21.064Z,61.0
2022-11-14T05:03:22.350Z,61.0
2022-11-14T05:05:52.956Z,61.0
2022-11-14T05:08:23.532Z,61.0
2022-11-14T05:10:54.106Z,61.0
2022-11-14T05:13:34.689Z,61.0
2022-11-14T05:16:05.295Z,61.0
2022-11-14T05:18:35.893Z,61.0
2022-11-14T05:21:07.613Z,61.0
2022-11-14T05:23:38.197Z,61.0
2022-11-14T05:26:09.073Z,61.0
2022-11-14T05:28:49.680Z,61.0
2022-11-14T05:31:20.269Z,61.0
2022-11-14T05:33:50.830Z,61.0
2022-11-14T05:36:21.448Z,61.0
2022-11-14T05:38:52.051Z,61.0
2022-11-14T05:44:12.815Z,61.0
2022-11-14T05:46:43.413Z,61.0
2022-11-14T05:49:16.819Z,61.0
2022-11-14T05:51:39.780Z,61.0
2022-11-14T05:54:10.365Z,61.0
2022-11-14T05:56:50.980Z,61.0
2022-11-14T05:59:21.569Z,61.0
2022-11-14T06:01:52.359Z,61.0
2022-11-14T06:04:23.151Z,61.0
2022-11-14T06:06:53.981Z,62.0
2022-11-14T06:09:24.697Z,62.0
2022-11-14T06:12:05.307Z,62.0
2022-11-14T06:14:35.894Z,62.0
2022-11-14T06:17:06.530Z,62.0
2022-11-14T06:19:37.128Z,62.0
2022-11-14T06:24:37.856Z,62.0
2022-11-14T06:27:18.482Z,62.0
2022-11-14T06:29:49.087Z,62.0
2022-11-14T06:32:19.644Z,62.0
2022-11-14T06:34:50.243Z,62.0
2022-11-14T06:37:20.832Z,62.0
2022-11-14T06:39:54.156Z,62.0
2022-11-14T06:42:34.764Z,62.0
2022-11-14T06:45:05.384Z,62.0
2022-11-14T06:47:36.001Z,62.0
2022-11-14T06:50:06.595Z,62.0
2022-11-14T06:52:37.215Z,62.0
2022-11-14T06:55:22.470Z,62.0
2022-11-14T06:57:55.564Z,62.0
2022-11-14T07:00:26.371Z,62.0
2022-11-14T07:05:27.115Z,62.0
2022-11-14T07:07:57.701Z,62.0
2022-11-14T07:10:38.434Z,62.0
2022-11-14T07:13:09.010Z,62.0
2022-11-14T07:15:39.614Z,62.0
2022-11-14T07:18:10.213Z,62.0
2022-11-14T07:20:40.842Z,62.0
2022-11-14T07:23:11.440Z,62.0
2022-11-14T07:25:53.573Z,62.0
2022-11-14T07:28:24.157Z,62.0
2022-11-14T07:30:54.754Z,62.0
2022-11-14T07:33:25.356Z,62.0
2022-11-14T07:35:55.964Z,62.0
2022-11-14T07:38:26.578Z,62.0
2022-11-14T07:41:10.142Z,62.0
2022-11-14T07:46:00.896Z,62.0
2022-11-14T07:48:31.705Z,62.0
2022-11-14T07:51:02.566Z,62.0
2022-11-14T07:53:43.161Z,62.0
2022-11-14T07:56:13.766Z,62.0
2022-11-14T07:58:54.383Z,62.0
2022-11-14T08:01:25.191Z,62.0
2022-11-14T08:03:56.655Z,62.0
2022-11-14T08:06:17.250Z,62.0
2022-11-14T08:08:57.857Z,62.0
2022-11-14T08:11:44.674Z,62.0
2022-11-14T08:14:05.282Z,62.0
2022-11-14T08:16:35.880Z,62.0
2022-11-14T08:19:06.489Z,62.0
2022-11-14T08:21:37.089Z,62.0
2022-11-14T08:26:47.830Z,62.0
2022-11-14T08:29:18.452Z,62.0
2022-11-14T08:31:49.026Z,62.0
2022-11-14T08:34:20.738Z,62.0
2022-11-14T08:36:51.367Z,63.0
2022-11-14T08:39:32.100Z,62.0
2022-11-14T08:42:02.690Z,62.0
2022-11-14T08:44:33.279Z,62.0
2022-11-14T08:47:08.434Z,62.0
2022-11-14T08:49:39.102Z,62.0
2022-11-14T08:52:13.758Z,62.0
2022-11-14T08:54:46.889Z,62.0
2022-11-14T08:57:17.482Z,62.0
2022-11-14T08:59:48.079Z,61.0
2022-11-14T09:02:18.665Z,62.0
2022-11-14T09:07:29.616Z,62.0
2022-11-14T09:10:00.241Z,62.0
2022-11-14T09:12:30.839Z,62.0
2022-11-14T09:15:01.447Z,62.0
2022-11-14T09:17:32.024Z,62.0
2022-11-14T09:20:02.635Z,61.0
2022-11-14T09:22:43.192Z,61.0
2022-11-14T09:25:13.814Z,61.0
2022-11-14T09:27:44.413Z,61.0
2022-11-14T09:30:15.032Z,61.0
2022-11-14T09:32:45.621Z,61.0
2022-11-14T09:35:16.216Z,61.0
2022-11-14T09:37:56.812Z,61.0
2022-11-14T09:40:27.459Z,61.0
2022-11-14T09:42:58.060Z,61.0
2022-11-14T09:47:58.793Z,61.0
2022-11-14T09:50:35.667Z,61.0
2022-11-14T09:53:16.266Z,61.0
2022-11-14T09:55:47.641Z,61.0
2022-11-14T09:58:18.213Z,61.0
2022-11-14T10:00:49.420Z,61.0
2022-11-14T10:03:20.038Z,60.0
2022-11-14T10:06:01.054Z,60.0
2022-11-14T10:08:31.660Z,59.0
2022-11-14T10:11:02.278Z,59.0
2022-11-14T10:13:33.057Z,59.0
2022-11-14T10:16:03.754Z,59.0
2022-11-14T10:18:34.377Z,59.0
2022-11-14T10:21:14.996Z,59.0
2022-11-14T10:23:45.581Z,59.0
2022-11-14T10:28:46.331Z,59.0
2022-11-14T10:31:16.928Z,58.0
2022-11-14T10:33:47.523Z,58.0
2022-11-14T10:36:28.164Z,58.0
2022-11-14T10:38:58.753Z,58.0
2022-11-14T10:41:57.745Z,58.0
2022-11-14T10:43:58.692Z,57.0
2022-11-14T10:46:29.277Z,57.0
2022-11-14T10:49:00.302Z,57.0
2022-11-14T10:51:41.206Z,57.0
2022-11-14T10:54:11.803Z,56.0
2022-11-14T10:56:42.420Z,56.0
2022-11-14T10:59:12.978Z,56.0
2022-11-14T11:01:43.712Z,56.0
2022-11-14T11:04:14.444Z,56.0
2022-11-14T11:09:25.373Z,56.0
2022-11-14T11:12:01.061Z,56.0
2022-11-14T11:14:31.727Z,56.0
2022-11-14T11:17:02.332Z,56.0
2022-11-14T11:19:42.956Z,56.0
2022-11-14T11:22:13.566Z,56.0
2022-11-14T11:24:44.178Z,56.0
2022-11-14T11:27:14.810Z,56.0
2022-11-14T11:29:45.426Z,56.0
2022-11-14T11:32:16.034Z,56.0
2022-11-14T11:34:56.667Z,56.0
2022-11-14T11:39:57.922Z,56.0
2022-11-14T11:42:53.733Z,56.0
2022-11-14T11:44:59.772Z,56.0
2022-11-14T11:50:10.562Z,56.0
2022-11-14T11:52:41.157Z,56.0
2022-11-14T11:55:11.769Z,56.0
2022-11-14T11:57:42.360Z,56.0
2022-11-14T12:00:12.960Z,56.0
2022-11-14T12:02:48.312Z,56.0
2022-11-14T12:05:20.252Z,56.0
2022-11-14T12:07:50.849Z,56.0
2022-11-14T12:10:31.455Z,56.0
2022-11-14T12:13:02.039Z,56.0
2022-11-14T12:15:32.656Z,56.0
2022-11-14T12:18:03.247Z,56.0
2022-11-14T12:20:43.850Z,56.0
2022-11-14T12:23:14.449Z,56.0
2022-11-14T12:25:45.054Z,56.0
2022-11-14T12:30:45.792Z,56.0
2022-11-14T12:33:26.391Z,56.0
2022-11-14T12:35:56.964Z,56.0
2022-11-14T12:38:27.563Z,57.0
2022-11-14T12:40:58.186Z,56.0
2022-11-14T12:43:33.270Z,56.0
2022-11-14T12:45:56.476Z,56.0
2022-11-14T12:48:37.081Z,56.0
2022-11-14T12:51:07.773Z,56.0
2022-11-14T12:53:38.802Z,56.0
2022-11-14T12:56:09.396Z,56.0
2022-11-14T12:58:39.991Z,56.0
2022-11-14T13:01:10.669Z,56.0
2022-11-14T13:03:51.425Z,56.0
2022-11-14T13:06:22.040Z,56.0
2022-11-14T13:11:22.758Z,57.0
2022-11-14T13:13:53.354Z,57.0
2022-11-14T13:16:23.967Z,56.0
2022-11-14T13:19:04.554Z,57.0
2022-11-14T13:21:35.139Z,57.0
2022-11-14T13:24:06.354Z,57.0
2022-11-14T13:26:36.957Z,57.0
2022-11-14T13:29:07.552Z,57.0
2022-11-14T13:31:38.152Z,57.0
2022-11-14T13:34:18.734Z,57.0
2022-11-14T13:36:49.372Z,57.0
2022-11-14T13:39:19.988Z,58.0
2022-11-14T13:41:58.117Z,58.0
2022-11-14T13:44:28.706Z,58.0
2022-11-14T13:47:09.314Z,58.0
2022-11-14T13:52:10.025Z,58.0
2022-11-14T13:54:40.634Z,58.0
2022-11-14T13:57:11.248Z,58.0
2022-11-14T13:59:41.780Z,58.0
2022-11-14T14:02:22.386Z,58.0
2022-11-14T14:04:52.981Z,58.0
2022-11-14T14:07:23.703Z,58.0
2022-11-14T14:09:54.446Z,58.0
2022-11-14T14:12:25.032Z,58.0
2022-11-14T14:14:55.651Z,58.0
2022-11-14T14:17:36.270Z,58.0
2022-11-14T14:20:06.881Z,58.0
2022-11-14T14:22:37.434Z,58.0
2022-11-14T14:25:08.039Z,58.0
2022-11-14T14:27:39.019Z,58.0
2022-11-14T14:32:49.738Z,58.0
2022-11-14T14:35:20.298Z,58.0
2022-11-14T14:37:52.236Z,58.0
2022-11-14T14:40:22.838Z,58.0
2022-11-14T14:42:53.437Z,58.0
2022-11-14T14:45:34.054Z,58.0
2022-11-14T14:48:04.630Z,58.0
2022-11-14T14:50:35.236Z,58.0
2022-11-14T14:53:05.844Z,58.0
2022-11-14T14:55:36.444Z,58.0
2022-11-14T14:58:07.022Z,58.0
2022-11-14T15:00:52.747Z,58.0
2022-11-14T15:03:23.436Z,58.0
2022-11-14T15:05:47.463Z,58.0
2022-11-14T15:08:18.072Z,58.0
2022-11-14T15:13:19.136Z,58.0
2022-11-14T15:15:59.753Z,58.0
2022-11-14T15:18:30.677Z,58.0
2022-11-14T15:21:01.369Z,58.0
2022-11-14T15:23:31.945Z,58.0
2022-11-14T15:26:02.502Z,58.0
2022-11-14T15:28:33.385Z,58.0
2022-11-14T15:31:14.200Z,58.0
2022-11-14T15:33:44.780Z,58.0
2022-11-14T15:36:15.362Z,58.0
2022-11-14T15:38:55.080Z,58.0
2022-11-14T15:41:15.733Z,58.0
2022-11-14T15:43:56.341Z,58.0
2022-11-14T15:46:36.974Z,58.0
2022-11-14T15:49:07.586Z,58.0
2022-11-14T15:54:08.342Z,58.0
2022-11-14T15:56:39.308Z,58.0
2022-11-14T15:59:19.872Z,58.0
2022-11-14T16:01:50.738Z,58.0
2022-11-14T16:04:21.389Z,58.0
2022-11-14T16:06:52.060Z,58.0
2022-11-14T16:09:22.806Z,58.0
2022-11-14T16:11:53.408Z,58.0
2022-11-14T16:14:33.992Z,58.0
2022-11-14T16:17:04.602Z,58.0
2022-11-14T16:19:35.215Z,58.0
2022-11-14T16:22:05.828Z,58.0
2022-11-14T16:24:42.694Z,58.0
2022-11-14T16:27:03.295Z,58.0
2022-11-14T16:29:43.894Z,58.0
2022-11-14T16:34:44.636Z,58.0
2022-11-14T16:37:15.202Z,58.0
2022-11-14T16:39:45.817Z,58.0
2022-11-14T16:42:16.445Z,58.0
2022-11-14T16:45:01.006Z,58.0
2022-11-14T16:47:31.721Z,58.0
2022-11-14T16:50:02.323Z,58.0
2022-11-14T16:52:32.926Z,58.0
2022-11-14T16:55:03.529Z,58.0
2022-11-14T16:57:44.145Z,58.0
2022-11-14T17:00:14.721Z,58.0
2022-11-14T17:02:45.298Z,58.0
2022-11-14T17:05:15.902Z,58.0
2022-11-14T17:07:46.541Z,58.0
2022-11-14T17:10:17.159Z,58.0
2022-11-14T17:15:27.895Z,58.0
2022-11-14T17:17:58.509Z,58.0
2022-11-14T17:20:29.176Z,59.0
2022-11-14T17:22:59.763Z,59.0
2022-11-14T17:25:30.366Z,59.0
2022-11-14T17:28:10.969Z,59.0
2022-11-14T17:30:41.640Z,59.0
2022-11-14T17:33:12.240Z,59.0
2022-11-14T17:35:42.849Z,59.0
2022-11-14T17:38:13.452Z,59.0
2022-11-14T17:40:44.064Z,59.0
2022-11-14T17:43:24.671Z,59.0
2022-11-14T17:45:59.951Z,59.0
2022-11-14T17:48:26.421Z,59.0
2022-11-14T17:50:57.024Z,59.0
2022-11-14T17:56:07.818Z,59.0
2022-11-14T17:58:38.918Z,59.0
2022-11-14T18:01:09.575Z,59.0
2022-11-14T18:03:40.367Z,59.0
2022-11-14T18:06:10.992Z,59.0
2022-11-14T18:08:42.008Z,59.0
2022-11-14T18:11:22.612Z,59.0
2022-11-14T18:13:53.406Z,59.0
2022-11-14T18:16:24.066Z,59.0
2022-11-14T18:18:57.945Z,59.0
2022-11-14T18:21:28.552Z,59.0
2022-11-14T18:23:59.141Z,59.0
2022-11-14T18:26:39.761Z,59.0
2022-11-14T18:29:10.351Z,59.0
2022-11-14T18:31:40.972Z,59.0
2022-11-14T18:36:41.711Z,59.0
2022-11-14T18:39:22.325Z,59.0
2022-11-14T18:41:52.934Z,59.0
2022-11-14T18:44:23.544Z,59.0
2022-11-14T18:46:54.126Z,59.0
2022-11-14T18:49:24.712Z,59.0
2022-11-14T18:51:55.301Z,59.0
2022-11-14T18:54:43.179Z,59.0
2022-11-14T18:57:13.772Z,59.0
2022-11-14T18:59:44.356Z,59.0
2022-11-14T19:02:15.061Z,59.0
2022-11-14T19:04:45.817Z,59.0
2022-11-14T19:07:16.634Z,59.0
2022-11-14T19:09:57.363Z,59.0
2022-11-14T19:12:27.961Z,59.0
2022-11-14T19:17:28.720Z,59.0
2022-11-14T19:19:59.427Z,59.0
2022-11-14T19:22:24.784Z,59.0
2022-11-14T19:25:05.366Z,59.0
2022-11-14T19:27:35.971Z,59.0
2022-11-14T19:30:06.578Z,59.0
2022-11-14T19:32:37.198Z,59.0
2022-11-14T19:35:07.786Z,60.0
2022-11-14T19:37:51.176Z,59.0
2022-11-14T19:40:21.840Z,60.0
2022-11-14T19:42:52.434Z,60.0
2022-11-14T19:45:23.034Z,60.0
2022-11-14T19:47:53.642Z,60.0
2022-11-14T19:50:24.219Z,60.0
2022-11-14T19:53:04.846Z,60.0
2022-11-14T19:58:05.603Z,60.0
2022-11-14T20:00:36.194Z,60.0
2022-11-14T20:03:06.806Z,60.0
2022-11-14T20:05:37.391Z,60.0
2022-11-14T20:08:18.003Z,60.0
2022-11-14T20:10:53.891Z,60.0
2022-11-14T20:13:24.486Z,60.0
2022-11-14T20:15:55.103Z,60.0
2022-11-14T20:18:25.690Z,60.0
2022-11-14T20:20:56.291Z,60.0
2022-11-14T20:23:36.909Z,60.0
2022-11-14T20:26:11.022Z,60.0
2022-11-14T20:28:41.817Z,60.0
2022-11-14T20:31:12.541Z,60.0
2022-11-14T20:38:53.454Z,60.0
2022-11-14T20:41:24.078Z,60.0
2022-11-14T20:43:54.688Z,60.0
2022-11-14T20:46:25.283Z,60.0
2022-11-14T20:48:55.864Z,60.0
2022-11-14T20:51:36.481Z,60.0
2022-11-14T20:54:07.082Z,60.0
2022-11-14T20:56:37.675Z,60.0
2022-11-14T20:59:08.258Z,60.0
2022-11-14T21:01:43.365Z,60.0
2022-11-14T21:04:04.702Z,60.0
2022-11-14T21:06:45.371Z,60.0
2022-11-14T21:09:16.097Z,60.0
2022-11-14T21:11:46.681Z,60.0
2022-11-14T21:14:17.270Z,60.0
2022-11-14T21:19:18.020Z,60.0
2022-11-14T21:21:58.616Z,60.0
2022-11-14T21:24:39.852Z,59.0
2022-11-14T21:27:00.527Z,60.0
2022-11-14T21:29:31.125Z,60.0
2022-11-14T21:32:01.763Z,60.0
2022-11-14T21:34:42.364Z,60.0
2022-11-14T21:37:22.956Z,60.0
2022-11-14T21:39:53.569Z,60.0
2022-11-14T21:42:28.425Z,60.0
2022-11-14T21:44:49.017Z,60.0
2022-11-14T21:47:19.673Z,60.0
2022-11-14T21:49:50.271Z,60.0
2022-11-14T21:52:31.984Z,60.0
2022-11-14T21:55:02.552Z,60.0
2022-11-14T22:00:03.286Z,60.0
2022-11-14T22:02:33.861Z,60.0
2022-11-14T22:05:14.467Z,60.0
2022-11-14T22:07:45.115Z,60.0
2022-11-14T22:10:15.721Z,60.0
2022-11-14T22:12:46.294Z,60.0
2022-11-14T22:15:16.882Z,59.0
2022-11-14T22:17:47.547Z,60.0
2022-11-14T22:20:28.171Z,60.0
2022-11-14T22:22:58.752Z,60.0
2022-11-14T22:25:29.352Z,60.0
2022-11-14T22:27:59.933Z,60.0
2022-11-14T22:30:30.539Z,60.0
2022-11-14T22:33:01.122Z,60.0
2022-11-14T22:35:41.729Z,60.0
2022-11-14T22:40:52.493Z,60.0
2022-11-14T22:43:23.085Z,60.0
2022-11-14T22:45:53.858Z,60.0
2022-11-14T22:48:24.444Z,60.0
2022-11-14T22:51:05.074Z,60.0
2022-11-14T22:53:35.684Z,60.0
2022-11-14T22:56:06.299Z,60.0
2022-11-14T22:58:36.897Z,60.0
2022-11-14T23:01:07.478Z,60.0
2022-11-14T23:03:38.502Z,60.0
2022-11-14T23:06:19.447Z,61.0
2022-11-14T23:08:50.166Z,60.0
2022-11-14T23:11:20.783Z,61.0
2022-11-14T23:13:51.374Z,61.0
2022-11-14T23:16:21.991Z,61.0
2022-11-14T23:21:32.715Z,61.0
2022-11-14T23:24:03.330Z,61.0
2022-11-14T23:26:33.958Z,61.0
2022-11-14T23:29:04.588Z,61.0
2022-11-14T23:31:35.198Z,61.0
2022-11-14T23:34:15.756Z,61.0
2022-11-14T23:36:46.346Z,61.0
2022-11-14T23:39:16.940Z,61.0
2022-11-14T23:41:47.557Z,61.0
2022-11-14T23:44:18.160Z,61.0
2022-11-14T23:46:48.759Z,61.0
2022-11-14T23:49:29.346Z,61.0
2022-11-14T23:51:59.945Z,61.0
2022-11-14T23:54:30.540Z,61.0
2022-11-14T23:57:04.318Z,61.0
